createdAt,value
2022-12-27T00:02:20.641Z,-2.86
2022-12-27T00:04:54.185Z,-2.97
2022-12-27T00:07:26.306Z,-2.90
2022-12-27T00:09:59.183Z,-3.09
2022-12-27T00:12:32.895Z,-3.09
2022-12-27T00:15:06.326Z,-3.19
2022-12-27T00:17:38.228Z,-3.18
2022-12-27T00:20:11.880Z,-3.27
2022-12-27T00:22:44.017Z,-3.38
2022-12-27T00:25:15.944Z,-3.30
2022-12-27T00:27:47.983Z,-3.43
2022-12-27T00:30:20.218Z,-3.36
2022-12-27T00:32:52.316Z,-3.42
2022-12-27T00:35:24.259Z,-3.46
2022-12-27T00:37:56.160Z,-3.42
2022-12-27T00:40:28.186Z,-3.46
2022-12-27T00:43:00.190Z,-3.51
2022-12-27T00:45:32.157Z,-3.53
2022-12-27T00:48:04.179Z,-3.47
2022-12-27T00:50:36.173Z,-3.40
2022-12-27T00:53:08.951Z,-3.42
2022-12-27T00:55:45.561Z,-3.39
2022-12-27T00:58:17.434Z,-3.38
2022-12-27T01:00:49.818Z,-3.33
2022-12-27T01:03:21.920Z,-3.26
2022-12-27T01:05:53.890Z,-3.29
2022-12-27T01:08:25.840Z,-3.29
2022-12-27T01:10:57.744Z,-3.28
2022-12-27T01:13:30.086Z,-3.13
2022-12-27T01:16:02.051Z,-3.22
2022-12-27T01:18:34.660Z,-3.21
2022-12-27T01:21:11.774Z,-3.22
2022-12-27T01:23:44.289Z,-3.22
2022-12-27T01:26:19.172Z,-3.22
2022-12-27T01:28:52.449Z,-3.16
2022-12-27T01:31:28.327Z,-3.17
2022-12-27T01:34:01.455Z,-3.19
2022-12-27T01:36:33.425Z,-3.19
2022-12-27T01:39:05.578Z,-3.13
2022-12-27T01:41:57.451Z,-3.11
2022-12-27T01:44:45.720Z,-3.13
2022-12-27T01:47:29.807Z,-3.10
2022-12-27T01:50:22.437Z,-3.05
2022-12-27T01:53:06.178Z,-2.98
2022-12-27T01:55:39.260Z,-3.00
2022-12-27T01:58:13.929Z,-2.88
2022-12-27T02:00:48.245Z,-3.01
2022-12-27T02:03:23.215Z,-3.01
2022-12-27T02:05:55.148Z,-2.97
2022-12-27T02:08:46.761Z,-3.02
2022-12-27T02:11:22.591Z,-3.00
2022-12-27T02:13:54.596Z,-3.01
2022-12-27T02:16:28.242Z,-3.00
2022-12-27T02:19:00.205Z,-2.95
2022-12-27T02:21:41.068Z,-2.93
2022-12-27T02:24:24.816Z,-2.91
2022-12-27T02:27:11.703Z,-2.92
2022-12-27T02:29:55.314Z,-2.92
2022-12-27T02:32:33.346Z,-2.97
2022-12-27T02:35:20.038Z,-2.91
2022-12-27T02:37:55.038Z,-2.91
2022-12-27T02:40:47.749Z,-2.92
2022-12-27T02:43:37.604Z,-2.93
2022-12-27T02:46:42.313Z,-2.88
2022-12-27T02:49:46.315Z,-2.92
2022-12-27T02:53:08.062Z,-2.85
2022-12-27T02:56:15.280Z,-2.89
2022-12-27T02:58:56.481Z,-2.90
2022-12-27T03:02:03.844Z,-2.90
2022-12-27T03:04:55.683Z,-2.90
2022-12-27T03:07:39.703Z,-2.83
2022-12-27T03:10:37.844Z,-2.90
2022-12-27T03:13:42.048Z,-2.91
2022-12-27T03:16:25.857Z,-2.91
2022-12-27T03:19:23.545Z,-2.87
2022-12-27T03:22:13.433Z,-2.86
2022-12-27T03:25:05.951Z,-2.82
2022-12-27T03:27:39.867Z,-2.77
2022-12-27T03:30:29.688Z,-2.72
2022-12-27T03:33:16.860Z,-2.61
2022-12-27T03:36:24.058Z,-2.67
2022-12-27T03:39:22.146Z,-2.70
2022-12-27T03:42:23.232Z,-2.68
2022-12-27T03:44:55.630Z,-2.63
2022-12-27T03:47:51.878Z,-2.66
2022-12-27T03:50:30.007Z,-2.70
2022-12-27T03:53:10.565Z,-2.68
2022-12-27T03:55:43.373Z,-2.69
2022-12-27T03:58:15.653Z,-2.70
2022-12-27T04:00:48.135Z,-2.67
2022-12-27T04:03:20.734Z,-2.67
2022-12-27T04:05:53.064Z,-2.65
2022-12-27T04:08:42.652Z,-2.67
2022-12-27T04:11:32.451Z,-2.66
2022-12-27T04:14:22.903Z,-2.63
2022-12-27T04:17:12.778Z,-2.58
2022-12-27T04:20:02.976Z,-2.56
2022-12-27T04:22:53.643Z,-2.50
2022-12-27T04:25:43.321Z,-2.66
2022-12-27T04:28:33.367Z,-2.70
2022-12-27T04:31:23.461Z,-2.74
2022-12-27T04:34:13.171Z,-2.72
2022-12-27T04:36:45.365Z,-2.70
2022-12-27T04:39:17.534Z,-2.69
2022-12-27T04:42:08.194Z,-2.68
2022-12-27T04:44:57.730Z,-2.66
2022-12-27T04:47:49.337Z,-2.64
2022-12-27T04:50:42.442Z,-2.61
2022-12-27T04:53:35.547Z,-2.57
2022-12-27T04:56:08.434Z,-2.60
2022-12-27T04:58:42.539Z,-2.63
2022-12-27T05:01:32.173Z,-2.65
2022-12-27T05:04:05.449Z,-2.65
2022-12-27T05:06:37.786Z,-2.60
2022-12-27T05:09:27.872Z,-2.59
2022-12-27T05:12:01.960Z,-2.57
2022-12-27T05:14:34.134Z,-2.59
2022-12-27T05:17:06.629Z,-2.61
2022-12-27T05:19:39.251Z,-2.59
2022-12-27T05:22:29.481Z,-2.47
2022-12-27T05:25:18.898Z,-2.62
2022-12-27T05:27:51.834Z,-2.65
2022-12-27T05:30:23.885Z,-2.65
2022-12-27T05:32:57.232Z,-2.63
2022-12-27T05:35:30.935Z,-2.64
2022-12-27T05:38:03.881Z,-2.58
2022-12-27T05:40:36.694Z,-2.57
2022-12-27T05:43:10.330Z,-2.61
2022-12-27T05:45:43.673Z,-2.67
2022-12-27T05:48:16.705Z,-2.66
2022-12-27T05:50:49.018Z,-2.66
2022-12-27T05:53:21.291Z,-2.62
2022-12-27T05:55:58.893Z,-2.58
2022-12-27T05:58:32.351Z,-2.54
2022-12-27T06:01:07.778Z,-2.51
2022-12-27T06:03:40.118Z,-2.50
2022-12-27T06:06:13.415Z,-2.47
2022-12-27T06:08:45.791Z,-2.37
2022-12-27T06:11:20.555Z,-2.39
2022-12-27T06:13:54.998Z,-2.39
2022-12-27T06:16:28.584Z,-2.40
2022-12-27T06:19:00.814Z,-2.38
2022-12-27T06:21:33.103Z,-2.34
2022-12-27T06:24:05.179Z,-2.28
2022-12-27T06:26:37.286Z,-2.27
2022-12-27T06:29:11.358Z,-2.27
2022-12-27T06:31:43.987Z,-2.27
2022-12-27T06:34:16.217Z,-2.26
2022-12-27T06:36:50.107Z,-2.23
2022-12-27T06:39:21.740Z,-2.23
2022-12-27T06:41:55.496Z,-1.99
2022-12-27T06:44:27.893Z,-2.13
2022-12-27T06:47:00.355Z,-2.30
2022-12-27T06:49:32.822Z,-2.35
2022-12-27T06:52:06.241Z,-2.37
2022-12-27T06:54:38.472Z,-2.38
2022-12-27T06:57:10.639Z,-2.36
2022-12-27T06:59:42.651Z,-2.29
2022-12-27T07:02:14.855Z,-2.27
2022-12-27T07:04:47.265Z,-2.32
2022-12-27T07:07:19.701Z,-2.34
2022-12-27T07:09:51.978Z,-2.31
2022-12-27T07:12:24.063Z,-2.27
2022-12-27T07:14:56.600Z,-2.19
2022-12-27T07:17:29.081Z,-2.20
2022-12-27T07:20:01.499Z,-2.18
2022-12-27T07:22:34.021Z,-2.05
2022-12-27T07:25:06.749Z,-2.14
2022-12-27T07:27:39.045Z,-2.19
2022-12-27T07:30:11.790Z,-2.21
2022-12-27T07:32:44.058Z,-2.19
2022-12-27T07:35:16.237Z,-2.15
2022-12-27T07:37:48.404Z,-2.14
2022-12-27T07:40:21.113Z,-2.15
2022-12-27T07:42:53.766Z,-2.11
2022-12-27T07:45:25.904Z,-2.04
2022-12-27T07:47:58.302Z,-1.97
2022-12-27T07:50:30.845Z,-1.95
2022-12-27T07:53:04.060Z,-1.96
2022-12-27T07:55:36.405Z,-1.91
2022-12-27T07:58:09.768Z,-1.86
2022-12-27T08:00:42.034Z,-1.78
2022-12-27T08:03:14.237Z,-1.75
2022-12-27T08:05:52.492Z,-1.76
2022-12-27T08:08:26.807Z,-1.76
2022-12-27T08:11:05.176Z,-1.64
2022-12-27T08:13:32.380Z,-1.74
2022-12-27T08:16:04.393Z,-1.67
2022-12-27T08:18:37.633Z,-1.79
2022-12-27T08:21:09.585Z,-1.83
2022-12-27T08:23:41.768Z,-1.78
2022-12-27T08:26:15.011Z,-1.80
2022-12-27T08:28:47.537Z,-1.92
2022-12-27T08:31:20.852Z,-2.01
2022-12-27T08:33:58.303Z,-2.01
2022-12-27T08:36:54.304Z,-2.01
2022-12-27T08:39:02.489Z,-1.98
2022-12-27T08:41:35.080Z,-1.97
2022-12-27T08:44:07.878Z,-1.95
2022-12-27T08:46:40.187Z,-1.91
2022-12-27T08:49:12.463Z,-1.92
2022-12-27T08:51:45.075Z,-1.91
2022-12-27T08:54:17.263Z,-1.89
2022-12-27T08:56:49.348Z,-1.72
2022-12-27T08:59:21.484Z,-1.84
2022-12-27T09:01:53.829Z,-1.83
2022-12-27T09:04:26.521Z,-1.77
2022-12-27T09:06:58.991Z,-1.59
2022-12-27T09:09:31.333Z,-1.61
2022-12-27T09:12:08.646Z,-1.65
2022-12-27T09:14:39.236Z,-1.65
2022-12-27T09:17:12.145Z,-1.59
2022-12-27T09:19:44.307Z,-1.56
2022-12-27T09:22:16.447Z,-1.54
2022-12-27T09:24:48.819Z,-1.53
2022-12-27T09:27:21.331Z,-1.51
2022-12-27T09:29:53.556Z,-1.47
2022-12-27T09:32:27.515Z,-1.42
2022-12-27T09:34:59.307Z,-1.47
2022-12-27T09:37:32.114Z,-1.28
2022-12-27T09:40:04.134Z,-1.49
2022-12-27T09:43:06.237Z,-1.56
2022-12-27T09:45:31.644Z,-1.64
2022-12-27T09:48:19.132Z,-1.66
2022-12-27T09:50:54.687Z,-1.71
2022-12-27T09:53:29.837Z,-1.77
2022-12-27T09:56:02.071Z,-1.81
2022-12-27T09:58:53.124Z,-1.84
2022-12-27T10:01:31.831Z,-1.81
2022-12-27T10:04:07.230Z,-1.85
2022-12-27T10:06:55.309Z,-1.84
2022-12-27T10:09:37.238Z,-1.91
2022-12-27T10:12:29.686Z,-1.90
2022-12-27T10:15:31.038Z,-1.89
2022-12-27T10:18:32.002Z,-1.89
2022-12-27T10:21:18.800Z,-1.85
2022-12-27T10:23:56.667Z,-1.84
2022-12-27T10:26:29.503Z,-1.80
2022-12-27T10:29:07.350Z,-1.80
2022-12-27T10:31:42.900Z,-1.76
2022-12-27T10:34:20.555Z,-1.72
2022-12-27T10:36:55.068Z,-1.71
2022-12-27T10:39:30.122Z,-1.65
2022-12-27T10:42:30.380Z,-1.51
2022-12-27T10:45:27.564Z,-1.40
2022-12-27T10:48:36.364Z,-1.48
2022-12-27T10:51:04.294Z,-1.53
2022-12-27T10:53:48.397Z,-1.60
2022-12-27T10:56:35.476Z,-1.62
2022-12-27T10:59:22.396Z,-1.53
2022-12-27T11:02:05.201Z,-1.45
2022-12-27T11:04:40.791Z,-1.40
2022-12-27T11:07:16.051Z,-1.41
2022-12-27T11:09:51.387Z,-1.34
2022-12-27T11:12:32.358Z,-1.41
2022-12-27T11:15:21.065Z,-1.42
2022-12-27T11:17:56.329Z,-1.39
2022-12-27T11:20:36.328Z,-1.32
2022-12-27T11:23:14.769Z,-1.38
2022-12-27T11:26:00.960Z,-1.44
2022-12-27T11:28:47.792Z,-1.44
2022-12-27T11:31:23.590Z,-1.43
2022-12-27T11:34:00.011Z,-1.45
2022-12-27T11:36:38.027Z,-1.46
2022-12-27T11:39:11.717Z,-1.44
2022-12-27T11:41:53.903Z,-1.40
2022-12-27T11:44:34.505Z,-1.25
2022-12-27T11:47:31.600Z,-1.31
2022-12-27T11:50:30.499Z,-1.33
2022-12-27T11:53:11.614Z,-1.35
2022-12-27T11:55:50.653Z,-1.38
2022-12-27T11:58:31.454Z,-1.36
2022-12-27T12:01:15.223Z,-1.38
2022-12-27T12:04:06.900Z,-1.39
2022-12-27T12:06:47.550Z,-1.34
2022-12-27T12:09:40.409Z,-1.35
2022-12-27T12:12:40.840Z,-1.33
2022-12-27T12:15:33.930Z,-1.30
2022-12-27T12:18:20.942Z,-1.33
2022-12-27T12:21:25.850Z,-1.33
2022-12-27T12:24:15.587Z,-1.34
2022-12-27T12:27:06.344Z,-1.34
2022-12-27T12:29:54.216Z,-1.32
2022-12-27T12:32:56.245Z,-1.27
2022-12-27T12:35:42.991Z,-1.27
2022-12-27T12:38:26.875Z,-1.23
2022-12-27T12:41:12.844Z,-1.26
2022-12-27T12:43:53.335Z,-1.11
2022-12-27T12:46:41.256Z,-1.20
2022-12-27T12:49:28.249Z,-1.19
2022-12-27T12:52:06.375Z,-1.18
2022-12-27T12:54:57.918Z,-1.15
2022-12-27T12:57:52.314Z,-1.09
2022-12-27T13:00:43.644Z,-1.08
2022-12-27T13:03:33.701Z,-1.07
2022-12-27T13:06:37.272Z,-1.12
2022-12-27T13:09:37.920Z,-1.11
2022-12-27T13:12:29.142Z,-1.09
2022-12-27T13:15:07.312Z,-1.11
2022-12-27T13:17:59.159Z,-1.08
2022-12-27T13:20:37.701Z,-1.03
2022-12-27T13:23:34.753Z,-1.00
2022-12-27T13:26:30.709Z,-1.00
2022-12-27T13:29:21.640Z,-0.97
2022-12-27T13:32:22.764Z,-0.93
2022-12-27T13:35:09.704Z,-0.96
2022-12-27T13:37:48.494Z,-0.98
2022-12-27T13:40:46.316Z,-0.97
2022-12-27T13:43:43.553Z,-0.92
2022-12-27T13:46:22.083Z,-0.85
2022-12-27T13:49:09.280Z,-0.82
2022-12-27T13:51:50.565Z,-0.82
2022-12-27T13:54:26.265Z,-0.79
2022-12-27T13:57:32.861Z,-0.76
2022-12-27T14:00:22.582Z,-0.73
2022-12-27T14:03:09.642Z,-0.66
2022-12-27T14:05:51.000Z,-0.71
2022-12-27T14:08:44.412Z,-0.74
2022-12-27T14:11:52.471Z,-0.73
2022-12-27T14:14:28.014Z,-0.73
2022-12-27T14:17:33.758Z,-0.68
2022-12-27T14:20:20.870Z,-0.64
2022-12-27T14:23:12.222Z,-0.61
2022-12-27T14:26:19.968Z,-0.65
2022-12-27T14:29:07.316Z,-0.67
2022-12-27T14:32:00.215Z,-0.67
2022-12-27T14:35:00.000Z,-0.67
2022-12-27T14:37:47.779Z,-0.65
2022-12-27T14:40:41.691Z,-0.59
2022-12-27T14:43:19.352Z,-0.56
2022-12-27T14:46:09.380Z,-0.58
2022-12-27T14:49:12.879Z,-0.56
2022-12-27T14:52:02.394Z,-0.55
2022-12-27T14:54:49.516Z,-0.53
2022-12-27T14:57:45.399Z,-0.49
2022-12-27T15:00:29.386Z,-0.46
2022-12-27T15:03:26.158Z,-0.44
2022-12-27T15:06:04.578Z,-0.40
2022-12-27T15:08:45.011Z,-0.24
2022-12-27T15:11:45.950Z,-0.34
2022-12-27T15:14:44.833Z,-0.28
2022-12-27T15:17:25.730Z,-0.34
2022-12-27T15:20:07.316Z,-0.33
2022-12-27T15:23:05.281Z,-0.36
2022-12-27T15:26:04.474Z,-0.29
2022-12-27T15:29:13.441Z,-0.33
2022-12-27T15:31:51.206Z,-0.32
2022-12-27T15:34:43.116Z,-0.29
2022-12-27T15:37:49.818Z,-0.28
2022-12-27T15:40:37.481Z,-0.27
2022-12-27T15:43:24.368Z,-0.25
2022-12-27T15:46:11.005Z,-0.22
2022-12-27T15:49:02.166Z,-0.20
2022-12-27T15:51:56.723Z,-0.18
2022-12-27T15:54:53.950Z,-0.17
2022-12-27T15:57:32.358Z,-0.13
2022-12-27T16:00:19.438Z,-0.08
2022-12-27T16:02:57.951Z,-0.04
2022-12-27T16:05:52.836Z,-0.02
2022-12-27T16:08:34.140Z,0.03
2022-12-27T16:11:12.158Z,0.00
2022-12-27T16:13:47.331Z,-0.01
2022-12-27T16:16:40.343Z,-0.01
2022-12-27T16:19:21.755Z,-0.04
2022-12-27T16:21:54.243Z,0.03
2022-12-27T16:24:28.358Z,0.03
2022-12-27T16:27:03.474Z,0.06
2022-12-27T16:29:37.721Z,0.04
2022-12-27T16:32:18.996Z,0.03
2022-12-27T16:34:57.075Z,0.01
2022-12-27T16:37:32.636Z,0.01
2022-12-27T16:40:13.807Z,0.08
2022-12-27T16:43:01.921Z,0.07
2022-12-27T16:45:44.907Z,0.11
2022-12-27T16:48:38.157Z,0.18
2022-12-27T16:51:17.300Z,0.13
2022-12-27T16:53:55.470Z,0.15
2022-12-27T16:56:31.604Z,0.15
2022-12-27T16:59:03.964Z,0.16
2022-12-27T17:01:48.007Z,0.21
2022-12-27T17:04:52.024Z,0.17
2022-12-27T17:07:54.134Z,0.17
2022-12-27T17:10:32.834Z,0.27
2022-12-27T17:13:25.690Z,0.25
2022-12-27T17:16:20.405Z,0.28
2022-12-27T17:19:10.951Z,0.25
2022-12-27T17:21:45.401Z,0.27
2022-12-27T17:24:20.508Z,0.28
2022-12-27T17:27:24.114Z,0.36
2022-12-27T17:30:08.177Z,0.29
2022-12-27T17:33:00.863Z,0.32
2022-12-27T17:35:41.794Z,0.34
2022-12-27T17:38:19.747Z,0.38
2022-12-27T17:41:15.169Z,0.34
2022-12-27T17:44:10.149Z,0.36
2022-12-27T17:47:00.773Z,0.39
2022-12-27T17:49:33.810Z,0.39
2022-12-27T17:52:24.366Z,0.39
2022-12-27T17:55:16.867Z,0.50
2022-12-27T17:57:54.771Z,0.42
2022-12-27T18:00:29.870Z,0.44
2022-12-27T18:03:04.939Z,0.43
2022-12-27T18:05:39.869Z,0.43
2022-12-27T18:08:34.366Z,0.45
2022-12-27T18:11:11.295Z,0.47
2022-12-27T18:13:46.860Z,0.51
2022-12-27T18:16:25.035Z,0.52
2022-12-27T18:18:59.005Z,0.54
2022-12-27T18:21:30.949Z,0.56
2022-12-27T18:24:03.525Z,0.72
2022-12-27T18:26:42.343Z,0.62
2022-12-27T18:29:15.106Z,0.63
2022-12-27T18:31:51.760Z,0.63
2022-12-27T18:34:30.249Z,0.65
2022-12-27T18:37:14.318Z,0.68
2022-12-27T18:39:59.528Z,0.68
2022-12-27T18:42:41.285Z,0.71
2022-12-27T18:45:26.484Z,0.70
2022-12-27T18:48:01.651Z,0.70
2022-12-27T18:50:35.486Z,0.72
2022-12-27T18:53:10.544Z,0.71
2022-12-27T18:55:45.386Z,0.73
2022-12-27T18:58:20.832Z,0.78
2022-12-27T19:01:07.591Z,0.76
2022-12-27T19:03:41.028Z,0.76
2022-12-27T19:06:14.939Z,0.79
2022-12-27T19:08:54.054Z,0.83
2022-12-27T19:11:34.580Z,0.83
2022-12-27T19:14:05.006Z,0.81
2022-12-27T19:16:37.175Z,0.81
2022-12-27T19:19:23.989Z,0.80
2022-12-27T19:21:56.381Z,0.80
2022-12-27T19:24:34.000Z,0.83
2022-12-27T19:27:19.165Z,0.84
2022-12-27T19:29:54.809Z,0.85
2022-12-27T19:32:33.456Z,0.86
2022-12-27T19:35:06.419Z,0.87
2022-12-27T19:37:38.719Z,0.87
2022-12-27T19:40:13.601Z,0.97
2022-12-27T19:42:45.646Z,0.92
2022-12-27T19:45:19.991Z,0.91
2022-12-27T19:47:52.798Z,0.88
2022-12-27T19:50:25.198Z,0.91
2022-12-27T19:52:57.366Z,0.95
2022-12-27T19:55:29.356Z,0.96
2022-12-27T19:58:01.314Z,0.93
2022-12-27T20:00:33.987Z,0.96
2022-12-27T20:03:06.488Z,0.93
2022-12-27T20:06:12.777Z,0.92
2022-12-27T20:08:35.751Z,0.92
2022-12-27T20:11:10.806Z,0.93
2022-12-27T20:13:43.166Z,0.95
2022-12-27T20:16:17.987Z,0.98
2022-12-27T20:18:50.240Z,0.98
2022-12-27T20:21:22.530Z,0.98
2022-12-27T20:23:54.513Z,0.96
2022-12-27T20:26:27.449Z,0.98
2022-12-27T20:29:00.548Z,0.98
2022-12-27T20:31:32.694Z,1.02
2022-12-27T20:34:05.282Z,1.03
2022-12-27T20:36:37.214Z,1.01
2022-12-27T20:39:09.742Z,1.03
2022-12-27T20:41:41.822Z,1.04
2022-12-27T20:44:15.213Z,1.03
2022-12-27T20:46:47.895Z,1.06
2022-12-27T20:49:19.804Z,1.06
2022-12-27T20:51:52.498Z,1.05
2022-12-27T20:54:24.794Z,1.06
2022-12-27T20:56:56.927Z,1.05
2022-12-27T20:59:29.351Z,1.08
2022-12-27T21:02:01.655Z,1.06
2022-12-27T21:04:33.814Z,1.07
2022-12-27T21:07:05.865Z,1.10
2022-12-27T21:09:37.941Z,1.13
2022-12-27T21:12:10.350Z,1.10
2022-12-27T21:14:42.295Z,1.12
2022-12-27T21:17:14.509Z,1.11
2022-12-27T21:19:46.626Z,1.09
2022-12-27T21:22:18.549Z,1.11
2022-12-27T21:24:50.503Z,1.12
2022-12-27T21:27:22.543Z,1.12
2022-12-27T21:29:54.678Z,1.11
2022-12-27T21:32:26.640Z,1.12
2022-12-27T21:34:58.544Z,1.13
2022-12-27T21:37:30.766Z,1.13
2022-12-27T21:40:02.957Z,1.16
2022-12-27T21:42:34.998Z,1.16
2022-12-27T21:45:07.461Z,1.15
2022-12-27T21:47:39.600Z,1.15
2022-12-27T21:50:11.722Z,1.14
2022-12-27T21:52:43.861Z,1.14
2022-12-27T21:55:15.778Z,1.15
2022-12-27T21:57:47.880Z,1.16
2022-12-27T22:00:20.060Z,1.16
2022-12-27T22:02:52.382Z,1.16
2022-12-27T22:05:24.903Z,1.16
2022-12-27T22:07:57.492Z,1.18
2022-12-27T22:10:30.266Z,1.17
2022-12-27T22:13:02.601Z,1.20
2022-12-27T22:15:34.797Z,1.20
2022-12-27T22:18:06.855Z,1.18
2022-12-27T22:20:45.077Z,1.17
2022-12-27T22:23:12.234Z,1.18
2022-12-27T22:25:44.576Z,1.35
2022-12-27T22:28:16.518Z,1.24
2022-12-27T22:30:48.533Z,1.21
2022-12-27T22:33:21.196Z,1.28
2022-12-27T22:35:53.343Z,1.24
2022-12-27T22:38:25.230Z,1.23
2022-12-27T22:41:08.953Z,1.20
2022-12-27T22:43:42.720Z,1.22
2022-12-27T22:46:15.040Z,1.23
2022-12-27T22:48:52.542Z,1.21
2022-12-27T22:51:27.992Z,1.20
2022-12-27T22:54:01.154Z,1.20
2022-12-27T22:56:53.782Z,1.21
2022-12-27T22:59:26.025Z,1.20
2022-12-27T23:01:58.413Z,1.23
2022-12-27T23:04:31.021Z,1.23
2022-12-27T23:07:03.059Z,1.22
2022-12-27T23:09:42.577Z,1.21
2022-12-27T23:12:08.420Z,1.21
2022-12-27T23:14:40.291Z,1.35
2022-12-27T23:17:12.372Z,1.26
2022-12-27T23:19:44.270Z,1.24
2022-12-27T23:22:16.210Z,1.22
2022-12-27T23:24:48.245Z,1.23
2022-12-27T23:27:20.418Z,1.23
2022-12-27T23:29:52.262Z,1.24
2022-12-27T23:32:24.249Z,1.24
2022-12-27T23:34:56.253Z,1.31
2022-12-27T23:37:28.374Z,1.29
2022-12-27T23:40:00.554Z,1.26
2022-12-27T23:42:33.352Z,1.27
2022-12-27T23:45:05.599Z,1.28
2022-12-27T23:47:37.423Z,1.30
2022-12-27T23:50:09.680Z,1.29
2022-12-27T23:52:41.533Z,1.27
2022-12-27T23:55:13.565Z,1.28
2022-12-27T23:57:45.354Z,1.34
